sensor_id;sensor_type;location;lat;lon;timestamp;P1;durP1;ratioP1;P2;durP2;ratioP2
21657;SDS011;10990;48.174;9.782;2022-08-04T00:00:13;1.80;;;1.50;;
21657;SDS011;10990;48.174;9.782;2022-08-04T00:02:45;1.90;;;1.52;;
21657;SDS011;10990;48.174;9.782;2022-08-04T00:05:24;4.40;;;1.38;;
21657;SDS011;10990;48.174;9.782;2022-08-04T00:08:00;3.20;;;1.50;;
21657;SDS011;10990;48.174;9.782;2022-08-04T00:10:33;2.75;;;1.40;;
21657;SDS011;10990;48.174;9.782;2022-08-04T00:13:02;1.63;;;1.40;;
21657;SDS011;10990;48.174;9.782;2022-08-04T00:15:31;1.60;;;1.50;;
21657;SDS011;10990;48.174;9.782;2022-08-04T00:18:02;3.63;;;1.40;;
21657;SDS011;10990;48.174;9.782;2022-08-04T00:20:32;3.10;;;1.33;;
21657;SDS011;10990;48.174;9.782;2022-08-04T00:23:02;2.03;;;1.30;;
21657;SDS011;10990;48.174;9.782;2022-08-04T00:25:31;2.20;;;1.40;;
21657;SDS011;10990;48.174;9.782;2022-08-04T00:28:00;1.95;;;1.40;;
21657;SDS011;10990;48.174;9.782;2022-08-04T00:30:28;2.35;;;1.38;;
21657;SDS011;10990;48.174;9.782;2022-08-04T00:32:56;2.65;;;1.30;;
21657;SDS011;10990;48.174;9.782;2022-08-04T00:35:24;1.83;;;1.30;;
21657;SDS011;10990;48.174;9.782;2022-08-04T00:37:54;1.58;;;1.10;;
21657;SDS011;10990;48.174;9.782;2022-08-04T00:40:23;2.13;;;1.50;;
21657;SDS011;10990;48.174;9.782;2022-08-04T00:43:05;4.57;;;1.60;;
21657;SDS011;10990;48.174;9.782;2022-08-04T00:45:43;1.88;;;1.50;;
21657;SDS011;10990;48.174;9.782;2022-08-04T00:48:26;1.83;;;1.38;;
21657;SDS011;10990;48.174;9.782;2022-08-04T00:51:13;2.10;;;1.33;;
21657;SDS011;10990;48.174;9.782;2022-08-04T00:53:49;2.63;;;1.60;;
21657;SDS011;10990;48.174;9.782;2022-08-04T00:56:30;2.35;;;1.60;;
21657;SDS011;10990;48.174;9.782;2022-08-04T00:59:09;5.68;;;1.63;;
21657;SDS011;10990;48.174;9.782;2022-08-04T01:01:50;3.60;;;1.50;;
21657;SDS011;10990;48.174;9.782;2022-08-04T01:04:28;2.38;;;1.48;;
21657;SDS011;10990;48.174;9.782;2022-08-04T01:07:11;4.22;;;1.65;;
21657;SDS011;10990;48.174;9.782;2022-08-04T01:09:54;1.50;;;1.40;;
21657;SDS011;10990;48.174;9.782;2022-08-04T01:12:39;1.45;;;1.35;;
21657;SDS011;10990;48.174;9.782;2022-08-04T01:15:16;1.92;;;1.50;;
21657;SDS011;10990;48.174;9.782;2022-08-04T01:17:53;3.80;;;1.70;;
21657;SDS011;10990;48.174;9.782;2022-08-04T01:20:29;1.50;;;1.35;;
21657;SDS011;10990;48.174;9.782;2022-08-04T01:29:14;2.95;;;1.20;;
21657;SDS011;10990;48.174;9.782;2022-08-04T01:31:54;3.28;;;1.60;;
21657;SDS011;10990;48.174;9.782;2022-08-04T01:34:33;2.85;;;1.70;;
21657;SDS011;10990;48.174;9.782;2022-08-04T01:37:03;1.48;;;1.38;;
21657;SDS011;10990;48.174;9.782;2022-08-04T01:39:41;1.98;;;1.70;;
21657;SDS011;10990;48.174;9.782;2022-08-04T01:42:17;3.22;;;1.60;;
21657;SDS011;10990;48.174;9.782;2022-08-04T01:44:48;2.40;;;1.45;;
21657;SDS011;10990;48.174;9.782;2022-08-04T01:47:19;2.22;;;1.50;;
21657;SDS011;10990;48.174;9.782;2022-08-04T01:49:48;1.60;;;1.50;;
21657;SDS011;10990;48.174;9.782;2022-08-04T01:52:17;3.53;;;1.67;;
21657;SDS011;10990;48.174;9.782;2022-08-04T01:54:45;2.10;;;1.60;;
21657;SDS011;10990;48.174;9.782;2022-08-04T01:57:14;3.53;;;1.65;;
21657;SDS011;10990;48.174;9.782;2022-08-04T01:59:44;2.45;;;1.60;;
21657;SDS011;10990;48.174;9.782;2022-08-04T02:02:15;2.42;;;1.60;;
21657;SDS011;10990;48.174;9.782;2022-08-04T02:04:42;1.92;;;1.48;;
21657;SDS011;10990;48.174;9.782;2022-08-04T02:07:13;1.77;;;1.38;;
21657;SDS011;10990;48.174;9.782;2022-08-04T02:10:04;2.88;;;1.60;;
21657;SDS011;10990;48.174;9.782;2022-08-04T02:12:37;3.25;;;1.50;;
21657;SDS011;10990;48.174;9.782;2022-08-04T02:15:21;1.85;;;1.65;;
21657;SDS011;10990;48.174;9.782;2022-08-04T02:18:03;1.55;;;1.45;;
21657;SDS011;10990;48.174;9.782;2022-08-04T02:20:33;2.53;;;1.60;;
21657;SDS011;10990;48.174;9.782;2022-08-04T02:23:04;2.72;;;1.65;;
21657;SDS011;10990;48.174;9.782;2022-08-04T02:25:35;2.75;;;1.70;;
21657;SDS011;10990;48.174;9.782;2022-08-04T02:30:57;1.75;;;1.63;;
21657;SDS011;10990;48.174;9.782;2022-08-04T02:33:33;1.70;;;1.60;;
21657;SDS011;10990;48.174;9.782;2022-08-04T02:36:05;3.80;;;2.05;;
21657;SDS011;10990;48.174;9.782;2022-08-04T02:38:41;3.00;;;1.98;;
21657;SDS011;10990;48.174;9.782;2022-08-04T02:41:20;2.85;;;1.70;;
21657;SDS011;10990;48.174;9.782;2022-08-04T02:43:48;4.03;;;1.70;;
21657;SDS011;10990;48.174;9.782;2022-08-04T02:46:16;1.98;;;1.70;;
21657;SDS011;10990;48.174;9.782;2022-08-04T02:48:46;1.83;;;1.60;;
21657;SDS011;10990;48.174;9.782;2022-08-04T02:51:15;2.13;;;1.90;;
21657;SDS011;10990;48.174;9.782;2022-08-04T02:53:48;4.70;;;2.05;;
21657;SDS011;10990;48.174;9.782;2022-08-04T02:56:19;3.95;;;1.90;;
21657;SDS011;10990;48.174;9.782;2022-08-04T02:58:48;3.00;;;1.70;;
21657;SDS011;10990;48.174;9.782;2022-08-04T03:01:20;3.05;;;1.70;;
21657;SDS011;10990;48.174;9.782;2022-08-04T03:03:52;2.42;;;1.60;;
21657;SDS011;10990;48.174;9.782;2022-08-04T03:06:50;2.38;;;1.52;;
21657;SDS011;10990;48.174;9.782;2022-08-04T03:12:55;1.60;;;1.50;;
21657;SDS011;10990;48.174;9.782;2022-08-04T03:18:44;2.85;;;1.58;;
21657;SDS011;10990;48.174;9.782;2022-08-04T03:21:59;1.73;;;1.63;;
21657;SDS011;10990;48.174;9.782;2022-08-04T03:31:41;2.25;;;1.70;;
21657;SDS011;10990;48.174;9.782;2022-08-04T03:34:27;3.22;;;1.90;;
21657;SDS011;10990;48.174;9.782;2022-08-04T03:37:11;3.58;;;1.77;;
21657;SDS011;10990;48.174;9.782;2022-08-04T03:46:26;2.72;;;1.75;;
21657;SDS011;10990;48.174;9.782;2022-08-04T03:49:09;2.35;;;1.65;;
21657;SDS011;10990;48.174;9.782;2022-08-04T03:52:00;2.40;;;1.73;;
21657;SDS011;10990;48.174;9.782;2022-08-04T04:04:45;1.73;;;1.58;;
21657;SDS011;10990;48.174;9.782;2022-08-04T04:10:34;3.25;;;1.83;;
21657;SDS011;10990;48.174;9.782;2022-08-04T04:13:25;3.35;;;1.67;;
21657;SDS011;10990;48.174;9.782;2022-08-04T04:16:13;2.65;;;1.65;;
21657;SDS011;10990;48.174;9.782;2022-08-04T04:19:00;2.92;;;1.70;;
21657;SDS011;10990;48.174;9.782;2022-08-04T04:24:49;2.55;;;1.92;;
21657;SDS011;10990;48.174;9.782;2022-08-04T04:27:27;4.22;;;2.05;;
21657;SDS011;10990;48.174;9.782;2022-08-04T04:30:07;4.30;;;1.95;;
21657;SDS011;10990;48.174;9.782;2022-08-04T04:32:42;2.45;;;1.52;;
21657;SDS011;10990;48.174;9.782;2022-08-04T04:35:34;2.35;;;1.60;;
21657;SDS011;10990;48.174;9.782;2022-08-04T04:38:20;3.78;;;1.90;;
21657;SDS011;10990;48.174;9.782;2022-08-04T04:41:02;3.03;;;2.05;;
21657;SDS011;10990;48.174;9.782;2022-08-04T04:43:45;2.70;;;1.90;;
21657;SDS011;10990;48.174;9.782;2022-08-04T04:46:35;2.05;;;1.70;;
21657;SDS011;10990;48.174;9.782;2022-08-04T04:49:11;2.25;;;1.80;;
21657;SDS011;10990;48.174;9.782;2022-08-04T04:51:48;2.35;;;1.80;;
21657;SDS011;10990;48.174;9.782;2022-08-04T04:54:25;2.40;;;1.90;;
21657;SDS011;10990;48.174;9.782;2022-08-04T04:57:06;3.58;;;2.05;;
21657;SDS011;10990;48.174;9.782;2022-08-04T04:59:41;2.45;;;1.90;;
21657;SDS011;10990;48.174;9.782;2022-08-04T05:06:10;5.15;;;2.10;;
21657;SDS011;10990;48.174;9.782;2022-08-04T05:08:54;4.03;;;2.40;;
21657;SDS011;10990;48.174;9.782;2022-08-04T05:11:39;5.05;;;2.50;;
21657;SDS011;10990;48.174;9.782;2022-08-04T05:14:26;4.75;;;2.30;;
21657;SDS011;10990;48.174;9.782;2022-08-04T05:16:58;2.63;;;2.10;;
21657;SDS011;10990;48.174;9.782;2022-08-04T05:19:32;5.95;;;2.10;;
21657;SDS011;10990;48.174;9.782;2022-08-04T05:22:12;3.90;;;1.98;;
21657;SDS011;10990;48.174;9.782;2022-08-04T05:24:46;3.85;;;2.20;;
21657;SDS011;10990;48.174;9.782;2022-08-04T05:27:18;5.18;;;2.08;;
21657;SDS011;10990;48.174;9.782;2022-08-04T05:29:53;3.08;;;2.00;;
21657;SDS011;10990;48.174;9.782;2022-08-04T05:32:25;3.38;;;2.10;;
21657;SDS011;10990;48.174;9.782;2022-08-04T05:34:59;2.95;;;2.08;;
21657;SDS011;10990;48.174;9.782;2022-08-04T05:37:39;3.08;;;2.00;;
21657;SDS011;10990;48.174;9.782;2022-08-04T05:40:11;2.63;;;2.38;;
21657;SDS011;10990;48.174;9.782;2022-08-04T05:42:38;3.05;;;2.30;;
21657;SDS011;10990;48.174;9.782;2022-08-04T05:45:09;2.65;;;2.25;;
21657;SDS011;10990;48.174;9.782;2022-08-04T05:47:36;2.83;;;2.17;;
21657;SDS011;10990;48.174;9.782;2022-08-04T05:50:05;3.17;;;2.47;;
21657;SDS011;10990;48.174;9.782;2022-08-04T05:52:33;2.55;;;2.35;;
21657;SDS011;10990;48.174;9.782;2022-08-04T05:55:03;2.30;;;2.10;;
21657;SDS011;10990;48.174;9.782;2022-08-04T05:57:32;2.50;;;2.30;;
21657;SDS011;10990;48.174;9.782;2022-08-04T06:00:03;3.83;;;2.40;;
21657;SDS011;10990;48.174;9.782;2022-08-04T06:02:33;2.42;;;2.22;;
21657;SDS011;10990;48.174;9.782;2022-08-04T06:05:03;3.42;;;2.47;;
21657;SDS011;10990;48.174;9.782;2022-08-04T06:07:32;5.25;;;2.30;;
21657;SDS011;10990;48.174;9.782;2022-08-04T06:10:00;3.72;;;2.42;;
21657;SDS011;10990;48.174;9.782;2022-08-04T06:12:31;2.22;;;2.03;;
21657;SDS011;10990;48.174;9.782;2022-08-04T06:15:07;2.97;;;2.17;;
21657;SDS011;10990;48.174;9.782;2022-08-04T06:17:47;2.53;;;2.13;;
21657;SDS011;10990;48.174;9.782;2022-08-04T06:20:16;3.63;;;2.67;;
21657;SDS011;10990;48.174;9.782;2022-08-04T06:22:46;3.38;;;2.83;;
21657;SDS011;10990;48.174;9.782;2022-08-04T06:25:19;3.60;;;2.50;;
21657;SDS011;10990;48.174;9.782;2022-08-04T06:27:49;2.90;;;2.60;;
21657;SDS011;10990;48.174;9.782;2022-08-04T06:30:22;2.55;;;2.35;;
21657;SDS011;10990;48.174;9.782;2022-08-04T06:32:52;4.88;;;2.60;;
21657;SDS011;10990;48.174;9.782;2022-08-04T06:35:22;7.20;;;3.30;;
21657;SDS011;10990;48.174;9.782;2022-08-04T06:37:52;5.43;;;3.35;;
21657;SDS011;10990;48.174;9.782;2022-08-04T06:40:20;4.68;;;3.58;;
21657;SDS011;10990;48.174;9.782;2022-08-04T06:42:49;4.82;;;3.70;;
21657;SDS011;10990;48.174;9.782;2022-08-04T06:45:18;9.10;;;3.90;;
21657;SDS011;10990;48.174;9.782;2022-08-04T06:47:45;3.70;;;3.30;;
21657;SDS011;10990;48.174;9.782;2022-08-04T06:50:17;3.95;;;3.50;;
21657;SDS011;10990;48.174;9.782;2022-08-04T06:52:45;5.05;;;3.90;;
21657;SDS011;10990;48.174;9.782;2022-08-04T06:55:13;3.42;;;3.13;;
21657;SDS011;10990;48.174;9.782;2022-08-04T06:58:18;4.13;;;3.65;;
21657;SDS011;10990;48.174;9.782;2022-08-04T07:00:38;4.97;;;3.65;;
21657;SDS011;10990;48.174;9.782;2022-08-04T07:03:10;6.50;;;3.67;;
21657;SDS011;10990;48.174;9.782;2022-08-04T07:05:45;6.13;;;3.65;;
21657;SDS011;10990;48.174;9.782;2022-08-04T07:08:14;3.58;;;3.28;;
21657;SDS011;10990;48.174;9.782;2022-08-04T07:10:42;3.55;;;3.25;;
21657;SDS011;10990;48.174;9.782;2022-08-04T07:13:13;4.18;;;3.53;;
21657;SDS011;10990;48.174;9.782;2022-08-04T07:15:46;4.72;;;3.20;;
21657;SDS011;10990;48.174;9.782;2022-08-04T07:18:15;5.75;;;3.17;;
21657;SDS011;10990;48.174;9.782;2022-08-04T07:20:45;4.50;;;3.25;;
21657;SDS011;10990;48.174;9.782;2022-08-04T07:24:28;3.17;;;2.88;;
21657;SDS011;10990;48.174;9.782;2022-08-04T07:26:56;3.50;;;3.20;;
21657;SDS011;10990;48.174;9.782;2022-08-04T07:29:36;3.83;;;2.80;;
21657;SDS011;10990;48.174;9.782;2022-08-04T07:36:07;4.22;;;3.17;;
21657;SDS011;10990;48.174;9.782;2022-08-04T07:43:08;3.30;;;3.00;;
21657;SDS011;10990;48.174;9.782;2022-08-04T07:45:43;4.93;;;3.03;;
21657;SDS011;10990;48.174;9.782;2022-08-04T07:48:12;3.72;;;3.42;;
21657;SDS011;10990;48.174;9.782;2022-08-04T07:50:44;3.17;;;2.90;;
21657;SDS011;10990;48.174;9.782;2022-08-04T07:53:26;7.15;;;3.50;;
21657;SDS011;10990;48.174;9.782;2022-08-04T07:55:55;3.83;;;2.97;;
21657;SDS011;10990;48.174;9.782;2022-08-04T07:58:23;4.13;;;3.08;;
21657;SDS011;10990;48.174;9.782;2022-08-04T08:00:50;4.63;;;3.03;;
21657;SDS011;10990;48.174;9.782;2022-08-04T08:03:20;3.47;;;2.70;;
21657;SDS011;10990;48.174;9.782;2022-08-04T08:05:49;4.15;;;3.05;;
21657;SDS011;10990;48.174;9.782;2022-08-04T08:08:16;6.47;;;3.10;;
21657;SDS011;10990;48.174;9.782;2022-08-04T08:11:45;3.35;;;2.90;;
21657;SDS011;10990;48.174;9.782;2022-08-04T08:17:11;3.25;;;2.80;;
21657;SDS011;10990;48.174;9.782;2022-08-04T08:19:40;5.03;;;3.65;;
21657;SDS011;10990;48.174;9.782;2022-08-04T08:22:06;4.57;;;3.20;;
21657;SDS011;10990;48.174;9.782;2022-08-04T08:24:37;4.05;;;2.85;;
21657;SDS011;10990;48.174;9.782;2022-08-04T08:27:17;6.07;;;3.10;;
21657;SDS011;10990;48.174;9.782;2022-08-04T08:29:47;3.33;;;2.90;;
21657;SDS011;10990;48.174;9.782;2022-08-04T08:36:38;3.90;;;2.65;;
21657;SDS011;10990;48.174;9.782;2022-08-04T08:42:35;6.47;;;3.00;;
21657;SDS011;10990;48.174;9.782;2022-08-04T08:56:33;6.70;;;3.30;;
21657;SDS011;10990;48.174;9.782;2022-08-04T08:59:35;9.13;;;3.33;;
21657;SDS011;10990;48.174;9.782;2022-08-04T09:02:33;6.28;;;3.55;;
21657;SDS011;10990;48.174;9.782;2022-08-04T09:05:19;5.10;;;3.30;;
21657;SDS011;10990;48.174;9.782;2022-08-04T09:11:22;3.78;;;3.40;;
21657;SDS011;10990;48.174;9.782;2022-08-04T09:14:40;4.00;;;3.60;;
21657;SDS011;10990;48.174;9.782;2022-08-04T09:17:18;4.05;;;3.22;;
21657;SDS011;10990;48.174;9.782;2022-08-04T09:20:15;4.18;;;3.42;;
21657;SDS011;10990;48.174;9.782;2022-08-04T09:26:35;3.53;;;2.83;;
21657;SDS011;10990;48.174;9.782;2022-08-04T09:30:00;6.88;;;3.30;;
21657;SDS011;10990;48.174;9.782;2022-08-04T09:32:33;7.25;;;3.38;;
21657;SDS011;10990;48.174;9.782;2022-08-04T09:46:35;3.92;;;3.28;;
21657;SDS011;10990;48.174;9.782;2022-08-04T09:49:17;3.95;;;3.60;;
21657;SDS011;10990;48.174;9.782;2022-08-04T09:55:54;7.97;;;3.60;;
21657;SDS011;10990;48.174;9.782;2022-08-04T10:02:46;4.53;;;3.35;;
21657;SDS011;10990;48.174;9.782;2022-08-04T10:09:23;3.20;;;2.90;;
21657;SDS011;10990;48.174;9.782;2022-08-04T10:12:36;4.22;;;3.30;;
21657;SDS011;10990;48.174;9.782;2022-08-04T10:16:09;3.55;;;3.05;;
21657;SDS011;10990;48.174;9.782;2022-08-04T10:22:14;3.13;;;2.80;;
21657;SDS011;10990;48.174;9.782;2022-08-04T10:36:09;3.13;;;2.83;;
21657;SDS011;10990;48.174;9.782;2022-08-04T10:43:36;3.15;;;2.80;;
21657;SDS011;10990;48.174;9.782;2022-08-04T11:28:52;2.08;;;1.90;;
21657;SDS011;10990;48.174;9.782;2022-08-04T11:31:27;2.05;;;1.95;;
21657;SDS011;10990;48.174;9.782;2022-08-04T11:34:38;3.20;;;2.10;;
21657;SDS011;10990;48.174;9.782;2022-08-04T11:38:20;2.17;;;1.98;;
21657;SDS011;10990;48.174;9.782;2022-08-04T11:45:40;2.50;;;2.30;;
21657;SDS011;10990;48.174;9.782;2022-08-04T11:48:22;3.00;;;2.50;;
21657;SDS011;10990;48.174;9.782;2022-08-04T11:58:45;3.03;;;2.55;;
21657;SDS011;10990;48.174;9.782;2022-08-04T12:10:19;2.70;;;2.50;;
21657;SDS011;10990;48.174;9.782;2022-08-04T12:20:02;2.75;;;2.50;;
21657;SDS011;10990;48.174;9.782;2022-08-04T12:22:33;2.60;;;2.40;;
21657;SDS011;10990;48.174;9.782;2022-08-04T12:25:02;2.92;;;2.45;;
21657;SDS011;10990;48.174;9.782;2022-08-04T12:27:44;2.83;;;2.40;;
21657;SDS011;10990;48.174;9.782;2022-08-04T12:36:36;2.70;;;2.40;;
21657;SDS011;10990;48.174;9.782;2022-08-04T12:43:43;2.50;;;2.30;;
21657;SDS011;10990;48.174;9.782;2022-08-04T13:10:39;4.93;;;2.80;;
21657;SDS011;10990;48.174;9.782;2022-08-04T13:28:18;3.20;;;2.90;;
21657;SDS011;10990;48.174;9.782;2022-08-04T13:34:40;3.17;;;2.88;;
21657;SDS011;10990;48.174;9.782;2022-08-04T13:37:10;3.63;;;2.80;;
21657;SDS011;10990;48.174;9.782;2022-08-04T13:40:20;3.20;;;2.70;;
21657;SDS011;10990;48.174;9.782;2022-08-04T14:01:12;2.08;;;1.95;;
21657;SDS011;10990;48.174;9.782;2022-08-04T14:07:01;2.80;;;2.60;;
21657;SDS011;10990;48.174;9.782;2022-08-04T14:41:20;2.40;;;2.20;;
21657;SDS011;10990;48.174;9.782;2022-08-04T14:46:49;4.88;;;2.20;;
21657;SDS011;10990;48.174;9.782;2022-08-04T14:49:22;2.53;;;2.33;;
21657;SDS011;10990;48.174;9.782;2022-08-04T15:12:01;2.50;;;2.30;;
21657;SDS011;10990;48.174;9.782;2022-08-04T15:18:11;3.05;;;2.20;;
21657;SDS011;10990;48.174;9.782;2022-08-04T15:20:39;3.20;;;2.20;;
21657;SDS011;10990;48.174;9.782;2022-08-04T15:41:32;2.33;;;2.00;;
21657;SDS011;10990;48.174;9.782;2022-08-04T15:55:29;2.33;;;2.10;;
21657;SDS011;10990;48.174;9.782;2022-08-04T15:58:08;2.20;;;2.00;;
21657;SDS011;10990;48.174;9.782;2022-08-04T16:03:43;2.50;;;2.30;;
21657;SDS011;10990;48.174;9.782;2022-08-04T16:09:10;2.42;;;2.22;;
21657;SDS011;10990;48.174;9.782;2022-08-04T16:11:49;2.20;;;2.00;;
21657;SDS011;10990;48.174;9.782;2022-08-04T16:18:05;2.20;;;2.05;;
21657;SDS011;10990;48.174;9.782;2022-08-04T16:20:40;2.35;;;2.15;;
21657;SDS011;10990;48.174;9.782;2022-08-04T16:34:21;2.50;;;1.98;;
21657;SDS011;10990;48.174;9.782;2022-08-04T16:40:53;1.95;;;1.85;;
21657;SDS011;10990;48.174;9.782;2022-08-04T16:48:02;3.35;;;2.40;;
21657;SDS011;10990;48.174;9.782;2022-08-04T16:51:15;2.10;;;2.00;;
21657;SDS011;10990;48.174;9.782;2022-08-04T17:01:05;2.13;;;2.03;;
21657;SDS011;10990;48.174;9.782;2022-08-04T17:04:01;2.13;;;2.00;;
21657;SDS011;10990;48.174;9.782;2022-08-04T17:06:33;2.70;;;2.50;;
21657;SDS011;10990;48.174;9.782;2022-08-04T17:09:04;2.40;;;2.20;;
21657;SDS011;10990;48.174;9.782;2022-08-04T17:11:32;2.33;;;2.20;;
21657;SDS011;10990;48.174;9.782;2022-08-04T17:13:59;2.70;;;2.50;;
21657;SDS011;10990;48.174;9.782;2022-08-04T17:16:27;2.65;;;2.45;;
21657;SDS011;10990;48.174;9.782;2022-08-04T17:18:55;2.85;;;2.55;;
21657;SDS011;10990;48.174;9.782;2022-08-04T17:21:23;2.85;;;2.25;;
21657;SDS011;10990;48.174;9.782;2022-08-04T17:23:55;2.60;;;2.40;;
21657;SDS011;10990;48.174;9.782;2022-08-04T17:26:24;2.50;;;2.30;;
21657;SDS011;10990;48.174;9.782;2022-08-04T17:28:54;2.40;;;2.30;;
21657;SDS011;10990;48.174;9.782;2022-08-04T17:31:24;2.47;;;2.28;;
21657;SDS011;10990;48.174;9.782;2022-08-04T17:33:54;3.08;;;2.42;;
21657;SDS011;10990;48.174;9.782;2022-08-04T17:36:26;2.30;;;2.10;;
21657;SDS011;10990;48.174;9.782;2022-08-04T17:40:10;2.40;;;2.03;;
21657;SDS011;10990;48.174;9.782;2022-08-04T17:54:28;2.88;;;2.50;;
21657;SDS011;10990;48.174;9.782;2022-08-04T19:23:28;11.50;;;3.10;;
21657;SDS011;10990;48.174;9.782;2022-08-04T19:25:58;9.85;;;3.42;;
21657;SDS011;10990;48.174;9.782;2022-08-04T19:28:25;8.60;;;3.15;;
21657;SDS011;10990;48.174;9.782;2022-08-04T19:30:55;12.93;;;3.42;;
21657;SDS011;10990;48.174;9.782;2022-08-04T19:33:22;8.90;;;3.53;;
21657;SDS011;10990;48.174;9.782;2022-08-04T19:35:50;7.65;;;3.25;;
21657;SDS011;10990;48.174;9.782;2022-08-04T19:38:17;12.40;;;3.75;;
21657;SDS011;10990;48.174;9.782;2022-08-04T19:40:47;10.50;;;3.58;;
21657;SDS011;10990;48.174;9.782;2022-08-04T19:43:14;10.65;;;3.42;;
21657;SDS011;10990;48.174;9.782;2022-08-04T19:45:41;9.35;;;3.08;;
21657;SDS011;10990;48.174;9.782;2022-08-04T19:48:08;8.90;;;3.30;;
21657;SDS011;10990;48.174;9.782;2022-08-04T19:50:35;9.25;;;3.78;;
21657;SDS011;10990;48.174;9.782;2022-08-04T19:53:02;5.47;;;3.00;;
21657;SDS011;10990;48.174;9.782;2022-08-04T19:55:30;4.88;;;3.13;;
21657;SDS011;10990;48.174;9.782;2022-08-04T19:58:01;6.72;;;2.92;;
21657;SDS011;10990;48.174;9.782;2022-08-04T20:00:30;3.45;;;2.90;;
21657;SDS011;10990;48.174;9.782;2022-08-04T20:02:57;5.20;;;2.90;;
21657;SDS011;10990;48.174;9.782;2022-08-04T20:05:26;4.32;;;2.78;;
21657;SDS011;10990;48.174;9.782;2022-08-04T20:07:52;3.70;;;2.85;;
21657;SDS011;10990;48.174;9.782;2022-08-04T20:10:20;3.38;;;2.63;;
21657;SDS011;10990;48.174;9.782;2022-08-04T20:12:47;4.30;;;3.10;;
21657;SDS011;10990;48.174;9.782;2022-08-04T20:15:16;4.20;;;2.97;;
21657;SDS011;10990;48.174;9.782;2022-08-04T20:17:43;4.75;;;2.92;;
21657;SDS011;10990;48.174;9.782;2022-08-04T20:20:11;4.65;;;2.75;;
21657;SDS011;10990;48.174;9.782;2022-08-04T20:22:38;4.85;;;2.70;;
21657;SDS011;10990;48.174;9.782;2022-08-04T20:25:06;2.97;;;2.40;;
21657;SDS011;10990;48.174;9.782;2022-08-04T20:27:34;3.10;;;2.80;;
21657;SDS011;10990;48.174;9.782;2022-08-04T20:30:02;4.15;;;2.90;;
21657;SDS011;10990;48.174;9.782;2022-08-04T20:32:31;4.05;;;2.60;;
21657;SDS011;10990;48.174;9.782;2022-08-04T20:34:59;4.20;;;2.90;;
21657;SDS011;10990;48.174;9.782;2022-08-04T20:37:26;2.80;;;2.42;;
21657;SDS011;10990;48.174;9.782;2022-08-04T20:39:54;4.35;;;3.70;;
21657;SDS011;10990;48.174;9.782;2022-08-04T20:42:22;5.82;;;3.53;;
21657;SDS011;10990;48.174;9.782;2022-08-04T20:44:50;5.05;;;3.50;;
21657;SDS011;10990;48.174;9.782;2022-08-04T20:47:17;4.40;;;3.28;;
21657;SDS011;10990;48.174;9.782;2022-08-04T20:49:47;4.13;;;3.63;;
21657;SDS011;10990;48.174;9.782;2022-08-04T20:52:14;4.22;;;3.22;;
21657;SDS011;10990;48.174;9.782;2022-08-04T20:54:41;3.88;;;3.10;;
21657;SDS011;10990;48.174;9.782;2022-08-04T20:57:10;3.50;;;3.20;;
21657;SDS011;10990;48.174;9.782;2022-08-04T20:59:38;4.45;;;3.10;;
21657;SDS011;10990;48.174;9.782;2022-08-04T21:02:05;3.35;;;2.85;;
21657;SDS011;10990;48.174;9.782;2022-08-04T21:04:33;4.72;;;3.00;;
21657;SDS011;10990;48.174;9.782;2022-08-04T21:07:05;3.58;;;3.15;;
21657;SDS011;10990;48.174;9.782;2022-08-04T21:09:34;3.90;;;2.58;;
21657;SDS011;10990;48.174;9.782;2022-08-04T21:12:02;3.13;;;2.83;;
21657;SDS011;10990;48.174;9.782;2022-08-04T21:14:31;5.90;;;2.85;;
21657;SDS011;10990;48.174;9.782;2022-08-04T21:16:59;4.40;;;3.05;;
21657;SDS011;10990;48.174;9.782;2022-08-04T21:19:28;4.50;;;3.30;;
21657;SDS011;10990;48.174;9.782;2022-08-04T21:21:55;6.18;;;3.28;;
21657;SDS011;10990;48.174;9.782;2022-08-04T21:24:25;3.85;;;2.85;;
21657;SDS011;10990;48.174;9.782;2022-08-04T21:26:52;3.13;;;2.58;;
21657;SDS011;10990;48.174;9.782;2022-08-04T21:29:20;5.20;;;3.22;;
21657;SDS011;10990;48.174;9.782;2022-08-04T21:31:47;5.60;;;2.90;;
21657;SDS011;10990;48.174;9.782;2022-08-04T21:34:15;7.85;;;2.75;;
21657;SDS011;10990;48.174;9.782;2022-08-04T21:36:43;4.13;;;2.83;;
21657;SDS011;10990;48.174;9.782;2022-08-04T21:39:12;6.78;;;2.63;;
21657;SDS011;10990;48.174;9.782;2022-08-04T21:41:40;4.65;;;2.80;;
21657;SDS011;10990;48.174;9.782;2022-08-04T21:44:08;3.75;;;2.70;;
21657;SDS011;10990;48.174;9.782;2022-08-04T21:46:35;6.93;;;2.97;;
21657;SDS011;10990;48.174;9.782;2022-08-04T21:49:03;5.70;;;2.80;;
21657;SDS011;10990;48.174;9.782;2022-08-04T21:51:31;3.92;;;2.80;;
21657;SDS011;10990;48.174;9.782;2022-08-04T21:54:01;3.20;;;2.50;;
21657;SDS011;10990;48.174;9.782;2022-08-04T21:56:29;3.33;;;2.42;;
21657;SDS011;10990;48.174;9.782;2022-08-04T21:58:57;3.80;;;2.65;;
21657;SDS011;10990;48.174;9.782;2022-08-04T22:01:24;4.03;;;2.83;;
21657;SDS011;10990;48.174;9.782;2022-08-04T22:03:52;5.82;;;3.17;;
21657;SDS011;10990;48.174;9.782;2022-08-04T22:06:20;3.20;;;2.75;;
21657;SDS011;10990;48.174;9.782;2022-08-04T22:08:48;3.78;;;2.40;;
21657;SDS011;10990;48.174;9.782;2022-08-04T22:11:22;2.72;;;2.47;;
21657;SDS011;10990;48.174;9.782;2022-08-04T22:13:53;3.92;;;2.55;;
21657;SDS011;10990;48.174;9.782;2022-08-04T22:16:23;4.28;;;2.67;;
21657;SDS011;10990;48.174;9.782;2022-08-04T22:18:51;3.03;;;2.40;;
21657;SDS011;10990;48.174;9.782;2022-08-04T22:21:18;4.60;;;3.00;;
21657;SDS011;10990;48.174;9.782;2022-08-04T22:23:46;6.80;;;3.00;;
21657;SDS011;10990;48.174;9.782;2022-08-04T22:26:13;4.88;;;3.00;;
21657;SDS011;10990;48.174;9.782;2022-08-04T22:28:41;3.88;;;2.80;;
21657;SDS011;10990;48.174;9.782;2022-08-04T22:31:09;3.22;;;2.60;;
21657;SDS011;10990;48.174;9.782;2022-08-04T22:33:39;4.25;;;2.80;;
21657;SDS011;10990;48.174;9.782;2022-08-04T22:36:07;3.78;;;2.70;;
21657;SDS011;10990;48.174;9.782;2022-08-04T22:38:34;3.58;;;2.70;;
21657;SDS011;10990;48.174;9.782;2022-08-04T22:41:03;4.55;;;2.83;;
21657;SDS011;10990;48.174;9.782;2022-08-04T22:43:31;4.95;;;3.05;;
21657;SDS011;10990;48.174;9.782;2022-08-04T22:46:01;4.22;;;2.88;;
21657;SDS011;10990;48.174;9.782;2022-08-04T22:48:30;4.00;;;2.60;;
21657;SDS011;10990;48.174;9.782;2022-08-04T22:50:59;3.72;;;2.70;;
21657;SDS011;10990;48.174;9.782;2022-08-04T22:53:28;3.58;;;2.78;;
21657;SDS011;10990;48.174;9.782;2022-08-04T22:55:55;3.10;;;2.80;;
21657;SDS011;10990;48.174;9.782;2022-08-04T22:58:21;4.15;;;2.70;;
21657;SDS011;10990;48.174;9.782;2022-08-04T23:00:49;4.13;;;2.65;;
21657;SDS011;10990;48.174;9.782;2022-08-04T23:03:16;3.45;;;2.90;;
21657;SDS011;10990;48.174;9.782;2022-08-04T23:05:44;3.33;;;2.90;;
21657;SDS011;10990;48.174;9.782;2022-08-04T23:08:13;4.32;;;2.78;;
21657;SDS011;10990;48.174;9.782;2022-08-04T23:10:40;3.83;;;2.58;;
21657;SDS011;10990;48.174;9.782;2022-08-04T23:13:09;8.57;;;3.80;;
21657;SDS011;10990;48.174;9.782;2022-08-04T23:15:37;3.80;;;3.40;;
21657;SDS011;10990;48.174;9.782;2022-08-04T23:18:05;4.15;;;3.20;;
21657;SDS011;10990;48.174;9.782;2022-08-04T23:20:32;5.38;;;3.33;;
21657;SDS011;10990;48.174;9.782;2022-08-04T23:23:02;5.90;;;2.92;;
21657;SDS011;10990;48.174;9.782;2022-08-04T23:25:31;4.18;;;3.00;;
21657;SDS011;10990;48.174;9.782;2022-08-04T23:27:59;3.97;;;2.70;;
21657;SDS011;10990;48.174;9.782;2022-08-04T23:30:26;3.85;;;2.78;;
21657;SDS011;10990;48.174;9.782;2022-08-04T23:32:54;6.07;;;3.17;;
21657;SDS011;10990;48.174;9.782;2022-08-04T23:35:22;4.50;;;3.10;;
21657;SDS011;10990;48.174;9.782;2022-08-04T23:37:49;3.67;;;2.80;;
21657;SDS011;10990;48.174;9.782;2022-08-04T23:40:17;3.08;;;2.72;;
21657;SDS011;10990;48.174;9.782;2022-08-04T23:42:46;3.85;;;2.92;;
21657;SDS011;10990;48.174;9.782;2022-08-04T23:45:13;4.93;;;3.33;;
21657;SDS011;10990;48.174;9.782;2022-08-04T23:47:40;5.28;;;3.25;;
21657;SDS011;10990;48.174;9.782;2022-08-04T23:50:08;4.05;;;3.10;;